»·PEaware :: N680CP KSBA-KSNA

N680CP :: KSBA-KSNA

FLIGHT INFORMATION

Flight Status: Arrived
Operator: Privately registered:
United States
More flights under this callsign
Pilot: Anonymous 20763 (20763)
Aircraft: CESSNA 172 SKYHAWK
(C172)
More flights by this aircraft type
Origin: KSBA Santa Barbara Mun
United States
Destination: KSNA John Wayne-Orange Co
United States
More flights between these airports :: More routes between these airports
Route: +CANOG LAX WILMA
File this flight plan on PilotEdge
Remarks:
Altitude:
(Current/Filed)
6,500ft
Speed:
(Current/Filed)
120kts
Departed: 11-Oct-18 08:10 PM
Arrived: 11-Oct-18 09:27 PM
Distance/Time
Traveled:
108nm/1:17
Distance/Time
To Go:
Arrived

Flight Plot

Page will automatically refresh every two minutes.

Flight plan parsing failed; only flown route is shown


Map Options




Map Legend


Flown Route
Filed Route
Departure Airport
Arrival Airport
Navaid (VOR, NDB)
Fix

Horizontal Profiles

Position Reports

Time Latitude Longitude Heading Altitude Ground
Speed
11-Oct-18 19:56 34.422664 -119.835593 340 10ft 0kts
11-Oct-18 19:57 34.422664 -119.835593 340 10ft 0kts
11-Oct-18 19:58 34.422664 -119.835593 340 10ft 0kts
11-Oct-18 19:59 34.422664 -119.835593 340 10ft 0kts
11-Oct-18 20:00 34.422664 -119.835593 340 10ft 0kts
11-Oct-18 20:01 34.422664 -119.835593 340 10ft 0kts
11-Oct-18 20:02 34.422664 -119.835593 340 10ft 0kts
11-Oct-18 20:03 34.422664 -119.835593 340 10ft 0kts
11-Oct-18 20:04 34.422664 -119.835593 340 10ft 0kts
11-Oct-18 20:05 34.422664 -119.835593 340 10ft 0kts
11-Oct-18 20:06 34.422664 -119.835593 340 10ft 0kts
11-Oct-18 20:07 34.422678 -119.835641 264 10ft 2kts
11-Oct-18 20:08 34.424961 -119.837812 344 13ft 19kts
11-Oct-18 20:09 34.427084 -119.834665 351 10ft 0kts
11-Oct-18 20:10 34.427084 -119.834665 351 10ft 0kts
11-Oct-18 20:11 34.427904 -119.835464 276 10ft 17kts
11-Oct-18 20:12 34.427334 -119.855168 269 388ft 78kts
11-Oct-18 20:13 34.426951 -119.882219 269 1087ft 82kts
11-Oct-18 20:14 34.425008 -119.909624 228 1790ft 83kts
11-Oct-18 20:15 34.405230 -119.901026 90 2602ft 80kts
11-Oct-18 20:16 34.404574 -119.878159 89 3104ft 83kts
11-Oct-18 20:17 34.403616 -119.849809 89 3705ft 84kts
11-Oct-18 20:18 34.402588 -119.824489 89 4245ft 82kts
11-Oct-18 20:19 34.401317 -119.796810 89 4768ft 88kts
11-Oct-18 20:20 34.399878 -119.767003 89 5357ft 87kts
11-Oct-18 20:21 34.398307 -119.733226 89 5516ft 118kts
11-Oct-18 20:22 34.396571 -119.691653 90 5514ft 126kts
11-Oct-18 20:23 34.403130 -119.652897 45 5511ft 124kts
11-Oct-18 20:24 34.405065 -119.612327 90 5514ft 119kts
11-Oct-18 20:25 34.403233 -119.572863 90 5514ft 116kts
11-Oct-18 20:26 34.397635 -119.534190 100 5514ft 116kts
11-Oct-18 20:27 34.390164 -119.495447 99 5515ft 122kts
11-Oct-18 20:28 34.381261 -119.447313 103 5514ft 128kts
11-Oct-18 20:29 34.374804 -119.412230 103 5514ft 128kts
11-Oct-18 20:30 34.367068 -119.370084 103 5514ft 128kts
11-Oct-18 20:31 34.359449 -119.328598 104 5513ft 128kts
11-Oct-18 20:32 34.351655 -119.286257 104 5477ft 127kts
11-Oct-18 20:33 34.344032 -119.244969 104 5477ft 124kts
11-Oct-18 20:34 34.336485 -119.204125 104 5477ft 124kts
11-Oct-18 20:35 34.328952 -119.163418 104 5477ft 124kts
11-Oct-18 20:36 34.321416 -119.122780 104 5477ft 124kts
11-Oct-18 20:37 34.313844 -119.082026 104 5477ft 123kts
11-Oct-18 20:38 34.306288 -119.041440 104 5477ft 123kts
11-Oct-18 20:39 34.298730 -119.000921 104 5477ft 123kts
11-Oct-18 20:40 34.291144 -118.960333 104 5477ft 123kts
11-Oct-18 20:41 34.283556 -118.919805 105 5477ft 123kts
11-Oct-18 20:42 34.275929 -118.879155 105 5477ft 123kts
11-Oct-18 20:43 34.268292 -118.838531 105 5477ft 124kts
11-Oct-18 20:44 34.260660 -118.798009 105 5477ft 124kts
11-Oct-18 20:45 34.252992 -118.757381 105 5478ft 124kts
11-Oct-18 20:46 34.245284 -118.716614 104 5478ft 124kts
11-Oct-18 20:47 34.237569 -118.675893 104 5477ft 124kts
11-Oct-18 20:48 34.229900 -118.635485 104 5477ft 124kts
11-Oct-18 20:49 34.220308 -118.596647 140 5473ft 121kts
11-Oct-18 20:50 34.190752 -118.578172 156 5478ft 119kts
11-Oct-18 20:51 34.160692 -118.561076 157 5477ft 119kts
11-Oct-18 20:52 34.131059 -118.543684 158 5477ft 119kts
11-Oct-18 20:53 34.101134 -118.526865 158 5477ft 118kts
11-Oct-18 20:54 34.075099 -118.505505 97 5479ft 124kts
11-Oct-18 20:55 34.101585 -118.482664 17 5477ft 128kts
11-Oct-18 20:56 34.135146 -118.468400 17 5477ft 127kts
11-Oct-18 20:57 34.168567 -118.454034 17 5477ft 127kts
11-Oct-18 20:58 34.190411 -118.476036 287 5478ft 119kts
11-Oct-18 20:59 34.201954 -118.513607 287 5477ft 119kts
11-Oct-18 21:00 34.206821 -118.551117 238 5479ft 116kts
11-Oct-18 21:01 34.182178 -118.559928 143 5479ft 120kts
11-Oct-18 21:02 34.152624 -118.541933 156 5477ft 119kts
11-Oct-18 21:03 34.122684 -118.524908 156 5477ft 119kts
11-Oct-18 21:04 34.092659 -118.508213 159 5477ft 118kts
11-Oct-18 21:05 34.062140 -118.493273 160 5477ft 118kts
11-Oct-18 21:06 34.031530 -118.478449 160 5477ft 118kts
11-Oct-18 21:07 34.000873 -118.463685 160 5477ft 118kts
11-Oct-18 21:08 33.970124 -118.448924 160 5477ft 119kts
11-Oct-18 21:09 33.939426 -118.434228 160 5477ft 119kts
11-Oct-18 21:10 33.908400 -118.417997 138 5488ft 123kts
11-Oct-18 21:11 33.886416 -118.386666 130 5487ft 124kts
11-Oct-18 21:12 33.863649 -118.355510 134 5487ft 124kts
11-Oct-18 21:13 33.840198 -118.327323 142 5495ft 122kts
11-Oct-18 21:14 33.814297 -118.300813 141 5495ft 122kts
11-Oct-18 21:15 33.788357 -118.273990 141 5495ft 123kts
11-Oct-18 21:16 33.764193 -118.245494 112 5496ft 122kts
11-Oct-18 21:17 33.751394 -118.207571 109 5496ft 122kts
11-Oct-18 21:18 33.738841 -118.169797 109 5497ft 121kts
11-Oct-18 21:19 33.726386 -118.132107 109 5497ft 121kts
11-Oct-18 21:20 33.714052 -118.094482 109 5496ft 120kts
11-Oct-18 21:21 33.701824 -118.056939 109 5495ft 120kts
11-Oct-18 21:22 33.689466 -118.019411 109 5306ft 122kts
11-Oct-18 21:23 33.677843 -117.984512 110 4351ft 117kts
11-Oct-18 21:24 33.693258 -117.956077 36 3344ft 113kts
11-Oct-18 21:25 33.691584 -117.925748 132 2340ft 117kts
11-Oct-18 21:26 33.676364 -117.895622 66 1173ft 107kts
11-Oct-18 21:27 33.694178 -117.875425 57 743ft 71kts
11-Oct-18 21:28 33.681556 -117.865178 215 135ft 79kts
11-Oct-18 21:29 33.675918 -117.869668 296 60ft 0kts
11-Oct-18 21:30 33.675918 -117.869668 296 60ft 0kts
11-Oct-18 21:31 33.674132 -117.871313 207 60ft 14kts
11-Oct-18 21:32 33.673299 -117.872597 14 60ft 0kts
11-Oct-18 21:33 33.673299 -117.872597 14 60ft 0kts
11-Oct-18 21:34 33.673299 -117.872597 14 60ft 0kts
11-Oct-18 21:35 33.673299 -117.872597 14 60ft 0kts
11-Oct-18 21:36 33.673299 -117.872597 14 60ft 0kts
11-Oct-18 21:37 33.673299 -117.872597 14 60ft 0kts
11-Oct-18 21:38 33.673299 -117.872597 14 60ft 0kts
11-Oct-18 21:39 33.673299 -117.872597 14 60ft 0kts
11-Oct-18 21:40 33.673299 -117.872597 14 60ft 0kts
11-Oct-18 21:41 33.673299 -117.872597 14 60ft 0kts
11-Oct-18 21:42 33.673299 -117.872597 14 60ft 0kts
11-Oct-18 21:43 33.673299 -117.872597 14 60ft 0kts
11-Oct-18 21:44 33.673299 -117.872597 14 60ft 0kts

Navigation Log

Ident Type
Flight plan parsing failed, navigation log unavailable